createdAt,value
2023-01-19T00:00:40.473Z,9.80
2023-01-19T00:03:16.417Z,8.50
2023-01-19T00:05:44.130Z,8.50
2023-01-19T00:08:17.610Z,9.00
2023-01-19T00:10:51.247Z,10.00
2023-01-19T00:13:21.885Z,7.70
2023-01-19T00:15:51.996Z,9.50
2023-01-19T00:18:19.432Z,7.60
2023-01-19T00:20:46.844Z,10.40
2023-01-19T00:23:14.479Z,10.10
2023-01-19T00:25:44.154Z,7.70
2023-01-19T00:28:11.690Z,8.50
2023-01-19T00:30:39.121Z,9.10
2023-01-19T00:33:06.422Z,5.50
2023-01-19T00:35:34.451Z,9.20
2023-01-19T00:38:01.390Z,11.40
2023-01-19T00:40:28.342Z,9.40
2023-01-19T00:42:55.133Z,8.60
2023-01-19T00:45:23.311Z,8.40
2023-01-19T00:47:54.763Z,6.50
2023-01-19T00:50:21.758Z,11.40
2023-01-19T00:52:48.498Z,10.10
2023-01-19T00:55:15.887Z,7.10
2023-01-19T00:57:42.869Z,8.50
2023-01-19T01:00:15.060Z,9.20
2023-01-19T01:02:45.425Z,6.00
2023-01-19T01:05:12.434Z,7.80
2023-01-19T01:07:41.953Z,8.50
2023-01-19T01:10:12.188Z,9.30
2023-01-19T01:12:40.053Z,6.60
2023-01-19T01:15:08.226Z,6.80
2023-01-19T01:17:35.022Z,9.20
2023-01-19T01:20:02.041Z,10.90
2023-01-19T01:22:32.069Z,7.60
2023-01-19T01:24:58.815Z,6.10
2023-01-19T01:27:25.575Z,7.80
2023-01-19T01:29:52.371Z,7.00
2023-01-19T01:32:19.228Z,9.30
2023-01-19T01:34:46.020Z,7.90
2023-01-19T05:19:20.548Z,13.70
2023-01-19T05:21:49.991Z,14.10
2023-01-19T05:24:18.647Z,14.60
2023-01-19T05:26:45.301Z,12.70
2023-01-19T05:29:11.921Z,12.90
2023-01-19T05:31:38.942Z,28.00
2023-01-19T05:34:05.585Z,24.60
2023-01-19T05:36:34.211Z,30.10
2023-01-19T05:39:00.931Z,25.40
2023-01-19T05:41:27.586Z,23.90
2023-01-19T05:43:54.130Z,19.30
2023-01-19T05:46:21.353Z,16.70
2023-01-19T05:48:47.984Z,16.90
2023-01-19T05:51:14.716Z,13.70
2023-01-19T05:53:41.866Z,14.20
2023-01-19T05:56:11.012Z,15.30
2023-01-19T05:58:40.915Z,12.70
2023-01-19T06:01:08.714Z,15.80
2023-01-19T06:03:35.998Z,15.20
2023-01-19T06:06:06.101Z,14.00
2023-01-19T06:08:33.689Z,13.70
2023-01-19T06:11:02.215Z,18.90
2023-01-19T06:13:28.882Z,19.70
2023-01-19T06:16:01.438Z,17.20
2023-01-19T06:18:31.795Z,15.70
2023-01-19T06:20:58.536Z,14.80
2023-01-19T06:23:26.362Z,38.90
2023-01-19T06:25:53.327Z,25.70
2023-01-19T06:28:20.056Z,25.30
2023-01-19T06:30:49.403Z,25.70
2023-01-19T06:33:16.352Z,16.50
2023-01-19T06:35:44.831Z,14.50
2023-01-19T06:38:12.997Z,17.00
2023-01-19T06:40:40.894Z,18.10
2023-01-19T06:43:07.541Z,14.50
2023-01-19T06:45:34.429Z,15.10
2023-01-19T06:48:05.567Z,16.30
2023-01-19T06:50:32.254Z,16.40
2023-01-19T06:52:59.787Z,16.60
2023-01-19T06:55:28.539Z,19.80
2023-01-19T06:57:59.457Z,21.60
2023-01-19T07:00:26.594Z,19.90
2023-01-19T07:02:54.358Z,13.30
2023-01-19T07:05:24.796Z,11.60
2023-01-19T07:07:57.092Z,9.50
2023-01-19T07:13:10.664Z,8.20
2023-01-19T07:15:37.865Z,9.70
2023-01-19T07:18:07.961Z,10.00
2023-01-19T07:20:38.009Z,10.50
2023-01-19T07:23:10.350Z,9.00
2023-01-19T07:25:39.469Z,11.30
2023-01-19T07:28:06.202Z,9.80
2023-01-19T07:30:33.080Z,13.70
2023-01-19T07:33:00.599Z,15.00
2023-01-19T07:35:32.470Z,16.60
2023-01-19T07:37:59.214Z,12.20
2023-01-19T07:40:25.926Z,10.10
2023-01-19T07:42:52.797Z,15.40
2023-01-19T07:45:20.853Z,11.90
2023-01-19T07:47:51.182Z,11.80
2023-01-19T07:50:26.115Z,11.10
2023-01-19T07:52:53.637Z,8.10
2023-01-19T07:55:20.748Z,12.10
2023-01-19T07:57:53.653Z,10.40
2023-01-19T08:00:26.807Z,10.00
2023-01-19T08:02:53.904Z,8.20
2023-01-19T08:05:21.435Z,9.40
2023-01-19T08:07:48.566Z,8.20
2023-01-19T08:10:43.708Z,8.70
2023-01-19T08:13:11.200Z,9.90
2023-01-19T08:15:44.383Z,11.70
2023-01-19T08:18:11.727Z,9.30
2023-01-19T08:20:38.674Z,8.00
2023-01-19T08:23:05.752Z,8.90
2023-01-19T08:25:34.854Z,8.20
2023-01-19T08:28:01.981Z,8.50
2023-01-19T08:30:28.952Z,11.00
2023-01-19T08:33:04.227Z,8.00
2023-01-19T08:35:33.216Z,11.60
2023-01-19T08:38:09.855Z,7.80
2023-01-19T08:40:38.882Z,10.30
2023-01-19T08:43:10.005Z,8.80
2023-01-19T08:45:38.364Z,7.70
2023-01-19T08:48:07.212Z,6.70
2023-01-19T08:50:34.400Z,8.40
2023-01-19T08:53:07.387Z,9.00
2023-01-19T08:55:38.153Z,9.80
2023-01-19T08:58:06.143Z,8.10
2023-01-19T09:00:41.294Z,9.10
2023-01-19T09:03:09.654Z,9.60
2023-01-19T09:05:39.094Z,9.40
2023-01-19T09:08:11.032Z,11.20
2023-01-19T09:10:39.222Z,10.30
2023-01-19T09:13:11.063Z,11.60
2023-01-19T09:15:39.640Z,10.70
2023-01-19T09:18:10.641Z,9.30
2023-01-19T09:20:41.134Z,9.80
2023-01-19T09:23:14.206Z,11.20
2023-01-19T09:25:44.110Z,10.50
2023-01-19T09:28:15.560Z,10.70
2023-01-19T09:30:42.717Z,11.40
2023-01-19T09:33:11.532Z,13.70
2023-01-19T09:35:41.350Z,9.60
2023-01-19T09:38:08.994Z,8.10
2023-01-19T09:40:49.643Z,9.90
2023-01-19T09:43:39.527Z,11.00
2023-01-19T09:46:24.549Z,11.10
2023-01-19T09:48:56.053Z,10.50
2023-01-19T09:51:25.663Z,12.60
2023-01-19T09:54:01.643Z,12.60
2023-01-19T09:56:29.116Z,8.60
2023-01-19T09:58:58.084Z,9.10
2023-01-19T10:01:35.671Z,10.60
2023-01-19T10:30:50.335Z,15.50
2023-01-19T10:33:18.978Z,11.00
2023-01-19T10:35:48.784Z,14.40
2023-01-19T10:38:15.764Z,13.70
2023-01-19T10:41:00.950Z,9.50
2023-01-19T10:43:33.805Z,12.30
2023-01-19T10:46:07.758Z,15.10
2023-01-19T10:48:40.573Z,16.00
2023-01-19T10:51:07.646Z,13.40
2023-01-19T10:53:34.451Z,13.30
2023-01-19T10:57:08.823Z,16.20
2023-01-19T10:59:38.401Z,13.90
2023-01-19T11:02:20.494Z,17.10
2023-01-19T11:04:51.399Z,13.50
2023-01-19T11:07:23.713Z,14.70
2023-01-19T11:09:50.657Z,14.50
2023-01-19T11:12:22.009Z,15.60
2023-01-19T11:14:50.305Z,14.20
2023-01-19T11:17:25.408Z,15.60
2023-01-19T11:19:59.673Z,14.90
2023-01-19T11:24:58.374Z,12.90
2023-01-19T11:27:25.106Z,15.20
2023-01-19T11:30:15.333Z,14.00
2023-01-19T11:32:43.022Z,13.60
2023-01-19T11:35:33.615Z,13.20
2023-01-19T11:38:12.545Z,13.70
2023-01-19T11:40:39.431Z,13.70
2023-01-19T11:43:06.167Z,13.50
2023-01-19T11:45:33.098Z,11.80
2023-01-19T11:48:02.167Z,13.50
2023-01-19T11:50:39.293Z,14.90
2023-01-19T11:53:09.294Z,13.80
2023-01-19T11:55:59.033Z,13.80
2023-01-19T11:58:26.028Z,13.00
2023-01-19T12:01:03.154Z,14.30
2023-01-19T12:03:37.433Z,15.40
2023-01-19T12:06:09.929Z,15.50
2023-01-19T12:08:42.632Z,12.50
2023-01-19T12:11:10.854Z,13.30
2023-01-19T12:13:37.637Z,15.30
2023-01-19T12:16:05.758Z,14.60
2023-01-19T12:18:37.402Z,15.80
2023-01-19T12:21:04.573Z,16.00
2023-01-19T12:23:44.041Z,13.50
2023-01-19T12:26:28.224Z,15.50
2023-01-19T12:29:20.120Z,14.80
2023-01-19T12:31:47.327Z,13.80
2023-01-19T12:34:25.253Z,17.30
2023-01-19T12:36:52.102Z,15.00
2023-01-19T12:39:22.185Z,13.10
2023-01-19T12:41:49.201Z,15.10
2023-01-19T12:44:20.245Z,14.00
2023-01-19T12:46:54.937Z,17.00
2023-01-19T12:49:32.067Z,12.40
2023-01-19T12:52:14.564Z,11.60
2023-01-19T12:54:43.621Z,12.50
2023-01-19T12:57:41.051Z,13.00
2023-01-19T13:00:22.977Z,13.10
2023-01-19T13:02:55.212Z,15.60
2023-01-19T13:05:27.554Z,14.20
2023-01-19T13:08:04.906Z,12.50
2023-01-19T13:10:54.550Z,14.20
2023-01-19T13:13:31.997Z,14.10
2023-01-19T13:16:18.749Z,14.00
2023-01-19T13:18:49.308Z,13.50
2023-01-19T13:21:31.509Z,11.90
2023-01-19T13:23:59.132Z,11.90
2023-01-19T13:26:28.270Z,13.00
2023-01-19T13:28:57.400Z,11.40
2023-01-19T13:31:24.949Z,13.80
2023-01-19T13:33:57.398Z,12.10
2023-01-19T13:36:26.924Z,11.90
2023-01-19T13:41:09.237Z,13.50
2023-01-19T13:43:37.164Z,12.10
2023-01-19T13:46:05.633Z,11.90
2023-01-19T13:48:32.638Z,15.30
2023-01-19T13:51:06.667Z,12.70
2023-01-19T13:53:36.852Z,13.60
2023-01-19T13:56:22.261Z,14.00
2023-01-19T13:59:05.531Z,13.50
2023-01-19T14:01:40.503Z,13.90
2023-01-19T14:04:47.115Z,12.40
2023-01-19T14:07:26.362Z,12.30
2023-01-19T14:10:08.299Z,13.30
2023-01-19T14:12:39.031Z,13.90
2023-01-19T14:15:14.141Z,12.80
2023-01-19T14:17:45.360Z,13.50
2023-01-19T14:20:46.720Z,12.80
2023-01-19T14:23:53.171Z,13.40
2023-01-19T14:26:43.098Z,14.60
2023-01-19T14:29:10.087Z,11.70
2023-01-19T14:31:50.394Z,14.70
2023-01-19T14:34:41.688Z,14.70
2023-01-19T14:37:18.529Z,17.40
2023-01-19T14:39:47.374Z,16.80
2023-01-19T14:42:22.892Z,14.20
2023-01-19T14:44:54.045Z,13.50
2023-01-19T14:47:38.504Z,14.70
2023-01-19T14:50:14.617Z,12.30
2023-01-19T14:52:41.522Z,13.90
2023-01-19T14:55:21.769Z,14.50
2023-01-19T14:57:49.393Z,13.80
2023-01-19T15:00:19.519Z,14.80
2023-01-19T15:02:47.037Z,13.20
2023-01-19T15:05:17.479Z,14.90
2023-01-19T15:07:45.343Z,14.70
2023-01-19T15:10:21.068Z,14.70
2023-01-19T15:12:48.886Z,12.00
2023-01-19T15:15:27.251Z,15.70
2023-01-19T15:18:06.688Z,15.80
2023-01-19T15:20:36.378Z,13.90
2023-01-19T15:23:05.264Z,14.10
2023-01-19T15:25:32.155Z,14.40
2023-01-19T15:27:58.996Z,13.50
2023-01-19T15:30:36.292Z,13.30
2023-01-19T15:33:03.141Z,13.80
2023-01-19T15:35:32.908Z,13.20
2023-01-19T15:37:59.827Z,15.60
2023-01-19T15:40:27.659Z,12.90
2023-01-19T15:42:54.449Z,14.40
2023-01-19T15:45:33.853Z,14.00
2023-01-19T15:48:08.022Z,15.10
2023-01-19T15:53:16.461Z,14.50
2023-01-19T15:55:46.032Z,14.20
2023-01-19T15:58:14.104Z,14.50
2023-01-19T16:00:41.076Z,12.50
2023-01-19T16:03:07.975Z,14.00
2023-01-19T16:05:43.394Z,14.20
2023-01-19T16:08:14.218Z,14.00
2023-01-19T16:10:41.912Z,13.60
2023-01-19T16:13:09.772Z,14.20
2023-01-19T16:15:38.746Z,12.30
2023-01-19T16:18:08.953Z,14.30
2023-01-19T16:20:36.012Z,14.10
2023-01-19T16:23:14.908Z,15.00
2023-01-19T16:25:43.215Z,15.20
2023-01-19T16:28:10.012Z,13.70
2023-01-19T16:30:36.910Z,12.60
2023-01-19T16:33:05.380Z,13.70
2023-01-19T16:35:32.201Z,13.30
2023-01-19T16:38:02.060Z,12.70
2023-01-19T16:40:30.392Z,13.10
2023-01-19T16:42:58.388Z,14.00
2023-01-19T16:45:25.327Z,11.90
2023-01-19T16:47:52.370Z,12.80
2023-01-19T16:50:19.530Z,13.40
2023-01-19T16:52:46.440Z,13.80
2023-01-19T16:55:13.324Z,14.30
2023-01-19T16:57:40.142Z,11.30
2023-01-19T17:00:10.423Z,12.60
2023-01-19T17:02:37.825Z,12.50
2023-01-19T17:05:05.507Z,13.40
2023-01-19T17:07:32.336Z,12.50
2023-01-19T17:10:00.206Z,12.50
2023-01-19T17:12:26.958Z,13.40
2023-01-19T17:14:53.755Z,12.90
2023-01-19T17:17:20.666Z,12.90
2023-01-19T17:19:47.439Z,14.80
2023-01-19T17:22:15.154Z,12.40
2023-01-19T17:24:43.409Z,13.80
2023-01-19T17:27:10.402Z,13.70
2023-01-19T17:29:37.213Z,13.50
2023-01-19T17:32:04.153Z,13.30
2023-01-19T17:34:31.065Z,13.10
2023-01-19T17:37:03.161Z,10.30
2023-01-19T17:39:30.404Z,15.30
2023-01-19T17:41:57.542Z,12.00
2023-01-19T17:44:24.445Z,13.40
2023-01-19T17:46:51.433Z,12.20
2023-01-19T17:49:18.267Z,12.50
2023-01-19T17:51:45.422Z,14.00
2023-01-19T17:54:12.853Z,11.90
2023-01-19T17:56:41.404Z,13.50
2023-01-19T17:59:08.592Z,12.00
2023-01-19T18:01:39.735Z,11.10
2023-01-19T18:04:07.324Z,10.70
2023-01-19T18:06:34.220Z,12.40
2023-01-19T18:09:05.177Z,11.50
2023-01-19T18:11:32.083Z,9.50
2023-01-19T18:14:00.804Z,11.90
2023-01-19T18:16:28.756Z,10.40
2023-01-19T18:18:56.917Z,10.50
2023-01-19T18:21:24.454Z,9.90
2023-01-19T18:23:52.565Z,8.70
2023-01-19T18:26:22.466Z,9.80
2023-01-19T18:28:49.506Z,9.30
2023-01-19T18:31:18.410Z,9.50
2023-01-19T18:33:45.602Z,12.40
2023-01-19T18:36:12.807Z,12.90
2023-01-19T18:38:39.800Z,12.50
2023-01-19T18:41:08.609Z,10.80
2023-01-19T18:43:35.478Z,11.00
2023-01-19T18:46:02.686Z,12.50
2023-01-19T18:48:29.632Z,10.00
2023-01-19T18:50:56.543Z,10.20
2023-01-19T18:53:23.596Z,9.70
2023-01-19T18:55:57.787Z,9.10
2023-01-19T18:58:25.280Z,11.80
2023-01-19T19:05:38.935Z,9.40
2023-01-19T19:08:06.117Z,9.40
2023-01-19T19:10:32.753Z,9.90
2023-01-19T19:12:59.400Z,11.60
2023-01-19T19:15:26.543Z,9.10
2023-01-19T19:17:53.879Z,8.50
2023-01-19T19:20:22.677Z,11.70
2023-01-19T19:22:49.336Z,9.80
2023-01-19T19:25:15.922Z,9.70
2023-01-19T19:27:44.785Z,10.10
2023-01-19T19:30:12.606Z,9.60
2023-01-19T19:32:40.335Z,8.80
2023-01-19T19:35:07.567Z,8.30
2023-01-19T19:37:34.268Z,8.60
2023-01-19T19:40:00.807Z,9.80
2023-01-19T19:42:29.377Z,8.60
2023-01-19T19:44:56.083Z,9.40
2023-01-19T20:59:28.783Z,11.60
2023-01-19T21:01:55.601Z,13.50
2023-01-19T21:04:22.454Z,11.20
2023-01-19T21:06:49.169Z,13.00
2023-01-19T21:09:15.904Z,10.80
2023-01-19T21:11:42.584Z,12.30
2023-01-19T21:14:09.307Z,10.50
2023-01-19T21:16:36.321Z,11.60
2023-01-19T21:19:03.705Z,12.60
2023-01-19T21:21:31.886Z,11.40
2023-01-19T21:24:00.490Z,10.90
2023-01-19T21:26:29.950Z,11.20
2023-01-19T21:29:00.575Z,11.10
2023-01-19T21:31:28.060Z,10.60
2023-01-19T21:33:55.784Z,12.10
2023-01-19T21:36:22.823Z,15.80
2023-01-19T21:38:51.559Z,11.50
2023-01-19T21:41:18.646Z,9.50
2023-01-19T21:43:46.353Z,10.40
2023-01-19T21:46:14.521Z,12.90
2023-01-19T21:48:42.296Z,11.40
2023-01-19T21:51:09.389Z,11.40
2023-01-19T21:53:36.091Z,10.30
2023-01-19T21:56:02.825Z,12.90
2023-01-19T21:58:29.554Z,11.80
2023-01-19T22:01:00.829Z,13.10
2023-01-19T22:03:28.284Z,10.80
2023-01-19T22:05:56.013Z,11.50
2023-01-19T22:08:23.516Z,11.60
2023-01-19T22:10:50.227Z,11.10
2023-01-19T22:13:16.972Z,12.70
2023-01-19T22:15:43.661Z,11.10
2023-01-19T22:18:10.428Z,12.90
2023-01-19T22:20:37.467Z,11.10
2023-01-19T22:23:04.303Z,12.00
2023-01-19T22:25:33.001Z,14.40
2023-01-19T22:27:59.744Z,13.40
2023-01-19T22:30:26.688Z,12.00
2023-01-19T22:32:53.654Z,13.40
2023-01-19T22:35:21.388Z,12.00
2023-01-19T22:37:48.091Z,13.00
2023-01-19T22:40:15.000Z,14.90
2023-01-19T22:42:45.827Z,15.20
2023-01-19T22:45:13.173Z,12.90
2023-01-19T22:47:39.977Z,14.00
2023-01-19T22:50:08.086Z,12.40
2023-01-19T22:52:34.817Z,13.60
2023-01-19T22:55:01.578Z,14.80
2023-01-19T22:57:28.258Z,14.40
2023-01-19T22:59:55.008Z,14.40
2023-01-19T23:02:21.832Z,12.60
2023-01-19T23:04:48.533Z,13.40
2023-01-19T23:07:15.271Z,15.20
2023-01-19T23:09:41.955Z,13.60
2023-01-19T23:12:08.623Z,14.20
2023-01-19T23:14:36.269Z,13.80
2023-01-19T23:17:03.013Z,13.60
2023-01-19T23:19:29.693Z,12.80
2023-01-19T23:21:56.432Z,13.30
2023-01-19T23:24:23.111Z,13.60
2023-01-19T23:26:50.521Z,13.00
2023-01-19T23:29:18.116Z,12.40
2023-01-19T23:31:46.888Z,13.30
2023-01-19T23:34:14.054Z,15.10
2023-01-19T23:36:41.591Z,14.20
2023-01-19T23:39:19.267Z,13.90
2023-01-19T23:41:46.233Z,13.50
2023-01-19T23:44:13.229Z,15.30
2023-01-19T23:46:40.099Z,14.50
2023-01-19T23:49:06.814Z,14.10
2023-01-19T23:51:34.603Z,13.90
2023-01-19T23:54:01.576Z,14.60
2023-01-19T23:56:33.189Z,15.30
2023-01-19T23:59:01.762Z,15.90
